sensor_id;sensor_type;location;lat;lon;timestamp;P1;durP1;ratioP1;P2;durP2;ratioP2
74541;SDS011;63015;45.378;20.360;2023-04-24T00:01:39;8.13;;;4.22;;
74541;SDS011;63015;45.378;20.360;2023-04-24T00:03:39;6.65;;;3.67;;
74541;SDS011;63015;45.378;20.360;2023-04-24T00:05:40;5.88;;;3.67;;
74541;SDS011;63015;45.378;20.360;2023-04-24T00:07:41;11.27;;;4.55;;
74541;SDS011;63015;45.378;20.360;2023-04-24T00:09:42;7.00;;;3.88;;
74541;SDS011;63015;45.378;20.360;2023-04-24T00:11:43;10.32;;;4.60;;
74541;SDS011;63015;45.378;20.360;2023-04-24T00:13:44;9.93;;;3.83;;
74541;SDS011;63015;45.378;20.360;2023-04-24T00:15:45;6.43;;;3.30;;
74541;SDS011;63015;45.378;20.360;2023-04-24T00:17:45;9.10;;;3.80;;
74541;SDS011;63015;45.378;20.360;2023-04-24T00:19:47;9.00;;;4.13;;
74541;SDS011;63015;45.378;20.360;2023-04-24T00:21:48;5.25;;;2.88;;
74541;SDS011;63015;45.378;20.360;2023-04-24T00:23:52;9.65;;;4.25;;
74541;SDS011;63015;45.378;20.360;2023-04-24T00:25:53;12.70;;;4.57;;
74541;SDS011;63015;45.378;20.360;2023-04-24T00:27:54;7.05;;;3.95;;
74541;SDS011;63015;45.378;20.360;2023-04-24T00:29:54;11.40;;;4.47;;
74541;SDS011;63015;45.378;20.360;2023-04-24T00:31:55;9.48;;;4.28;;
74541;SDS011;63015;45.378;20.360;2023-04-24T00:33:56;7.97;;;4.57;;
74541;SDS011;63015;45.378;20.360;2023-04-24T00:35:56;12.05;;;4.10;;
74541;SDS011;63015;45.378;20.360;2023-04-24T00:37:58;6.93;;;4.05;;
74541;SDS011;63015;45.378;20.360;2023-04-24T00:39:58;6.28;;;4.55;;
74541;SDS011;63015;45.378;20.360;2023-04-24T00:41:59;7.80;;;4.03;;
74541;SDS011;63015;45.378;20.360;2023-04-24T00:44:01;6.47;;;4.05;;
74541;SDS011;63015;45.378;20.360;2023-04-24T00:46:02;5.30;;;3.47;;
74541;SDS011;63015;45.378;20.360;2023-04-24T00:48:03;7.47;;;3.85;;
74541;SDS011;63015;45.378;20.360;2023-04-24T00:50:05;10.60;;;4.40;;
74541;SDS011;63015;45.378;20.360;2023-04-24T00:52:06;6.13;;;3.63;;
74541;SDS011;63015;45.378;20.360;2023-04-24T00:54:09;8.27;;;4.55;;
74541;SDS011;63015;45.378;20.360;2023-04-24T00:56:09;6.90;;;3.58;;
74541;SDS011;63015;45.378;20.360;2023-04-24T00:58:10;8.13;;;3.72;;
74541;SDS011;63015;45.378;20.360;2023-04-24T01:00:11;7.45;;;4.10;;
74541;SDS011;63015;45.378;20.360;2023-04-24T01:02:12;8.00;;;4.55;;
74541;SDS011;63015;45.378;20.360;2023-04-24T01:04:13;7.65;;;3.92;;
74541;SDS011;63015;45.378;20.360;2023-04-24T01:06:15;6.30;;;3.67;;
74541;SDS011;63015;45.378;20.360;2023-04-24T01:08:16;6.10;;;4.20;;
74541;SDS011;63015;45.378;20.360;2023-04-24T01:10:17;7.43;;;4.68;;
74541;SDS011;63015;45.378;20.360;2023-04-24T01:12:20;10.13;;;4.05;;
74541;SDS011;63015;45.378;20.360;2023-04-24T01:14:21;7.78;;;4.65;;
74541;SDS011;63015;45.378;20.360;2023-04-24T01:16:23;10.63;;;3.72;;
74541;SDS011;63015;45.378;20.360;2023-04-24T01:18:24;6.10;;;3.28;;
74541;SDS011;63015;45.378;20.360;2023-04-24T01:20:24;10.55;;;5.47;;
74541;SDS011;63015;45.378;20.360;2023-04-24T01:22:26;5.88;;;3.40;;
74541;SDS011;63015;45.378;20.360;2023-04-24T01:24:28;10.07;;;4.57;;
74541;SDS011;63015;45.378;20.360;2023-04-24T01:26:29;11.13;;;5.05;;
74541;SDS011;63015;45.378;20.360;2023-04-24T01:28:30;8.32;;;3.90;;
74541;SDS011;63015;45.378;20.360;2023-04-24T01:30:31;9.35;;;4.40;;
74541;SDS011;63015;45.378;20.360;2023-04-24T01:32:32;5.57;;;3.30;;
74541;SDS011;63015;45.378;20.360;2023-04-24T01:34:33;7.15;;;4.32;;
74541;SDS011;63015;45.378;20.360;2023-04-24T01:36:34;8.48;;;3.95;;
74541;SDS011;63015;45.378;20.360;2023-04-24T01:38:36;11.65;;;4.90;;
74541;SDS011;63015;45.378;20.360;2023-04-24T01:40:37;8.18;;;4.72;;
74541;SDS011;63015;45.378;20.360;2023-04-24T01:42:38;7.30;;;3.47;;
74541;SDS011;63015;45.378;20.360;2023-04-24T01:44:41;9.73;;;4.40;;
74541;SDS011;63015;45.378;20.360;2023-04-24T01:46:42;8.18;;;4.93;;
74541;SDS011;63015;45.378;20.360;2023-04-24T01:48:44;7.20;;;4.30;;
74541;SDS011;63015;45.378;20.360;2023-04-24T01:50:45;8.65;;;4.57;;
74541;SDS011;63015;45.378;20.360;2023-04-24T01:52:46;7.80;;;4.38;;
74541;SDS011;63015;45.378;20.360;2023-04-24T01:54:47;8.98;;;4.70;;
74541;SDS011;63015;45.378;20.360;2023-04-24T01:56:47;7.78;;;4.63;;
74541;SDS011;63015;45.378;20.360;2023-04-24T01:58:49;9.25;;;5.03;;
74541;SDS011;63015;45.378;20.360;2023-04-24T02:00:52;6.53;;;4.30;;
74541;SDS011;63015;45.378;20.360;2023-04-24T02:02:54;8.20;;;4.90;;
74541;SDS011;63015;45.378;20.360;2023-04-24T02:04:55;8.70;;;4.43;;
74541;SDS011;63015;45.378;20.360;2023-04-24T02:06:56;7.13;;;4.35;;
74541;SDS011;63015;45.378;20.360;2023-04-24T02:08:58;11.07;;;4.70;;
74541;SDS011;63015;45.378;20.360;2023-04-24T02:10:59;9.10;;;5.13;;
74541;SDS011;63015;45.378;20.360;2023-04-24T02:13:02;8.57;;;4.32;;
74541;SDS011;63015;45.378;20.360;2023-04-24T02:15:02;7.68;;;5.00;;
74541;SDS011;63015;45.378;20.360;2023-04-24T02:17:03;11.38;;;4.60;;
74541;SDS011;63015;45.378;20.360;2023-04-24T02:19:05;8.68;;;5.20;;
74541;SDS011;63015;45.378;20.360;2023-04-24T02:21:05;8.05;;;4.35;;
74541;SDS011;63015;45.378;20.360;2023-04-24T02:23:06;6.90;;;4.63;;
74541;SDS011;63015;45.378;20.360;2023-04-24T02:25:07;9.27;;;4.50;;
74541;SDS011;63015;45.378;20.360;2023-04-24T02:27:08;9.85;;;6.13;;
74541;SDS011;63015;45.378;20.360;2023-04-24T02:29:09;9.02;;;5.18;;
74541;SDS011;63015;45.378;20.360;2023-04-24T02:31:09;8.70;;;5.07;;
74541;SDS011;63015;45.378;20.360;2023-04-24T02:33:10;9.18;;;4.82;;
74541;SDS011;63015;45.378;20.360;2023-04-24T02:35:11;8.38;;;4.63;;
74541;SDS011;63015;45.378;20.360;2023-04-24T02:37:12;10.80;;;4.35;;
74541;SDS011;63015;45.378;20.360;2023-04-24T02:39:13;11.20;;;4.72;;
74541;SDS011;63015;45.378;20.360;2023-04-24T02:41:14;8.05;;;4.20;;
74541;SDS011;63015;45.378;20.360;2023-04-24T02:43:16;9.07;;;4.88;;
74541;SDS011;63015;45.378;20.360;2023-04-24T02:45:17;7.57;;;4.57;;
74541;SDS011;63015;45.378;20.360;2023-04-24T02:47:17;7.18;;;4.68;;
74541;SDS011;63015;45.378;20.360;2023-04-24T02:49:19;8.48;;;4.45;;
74541;SDS011;63015;45.378;20.360;2023-04-24T02:51:20;13.98;;;6.30;;
74541;SDS011;63015;45.378;20.360;2023-04-24T02:53:21;12.13;;;5.90;;
74541;SDS011;63015;45.378;20.360;2023-04-24T02:55:22;9.40;;;5.47;;
74541;SDS011;63015;45.378;20.360;2023-04-24T02:57:23;9.35;;;5.75;;
74541;SDS011;63015;45.378;20.360;2023-04-24T02:59:24;10.30;;;5.80;;
74541;SDS011;63015;45.378;20.360;2023-04-24T03:01:27;8.43;;;4.82;;
74541;SDS011;63015;45.378;20.360;2023-04-24T03:03:27;8.80;;;4.78;;
74541;SDS011;63015;45.378;20.360;2023-04-24T03:05:28;6.95;;;4.22;;
74541;SDS011;63015;45.378;20.360;2023-04-24T03:07:31;10.57;;;5.30;;
74541;SDS011;63015;45.378;20.360;2023-04-24T03:09:33;10.82;;;4.97;;
74541;SDS011;63015;45.378;20.360;2023-04-24T03:11:33;8.13;;;4.70;;
74541;SDS011;63015;45.378;20.360;2023-04-24T03:13:34;9.40;;;4.93;;
74541;SDS011;63015;45.378;20.360;2023-04-24T03:15:35;10.93;;;4.72;;
74541;SDS011;63015;45.378;20.360;2023-04-24T03:17:35;9.43;;;4.45;;
74541;SDS011;63015;45.378;20.360;2023-04-24T03:19:37;10.55;;;4.82;;
74541;SDS011;63015;45.378;20.360;2023-04-24T03:21:42;12.10;;;5.60;;
74541;SDS011;63015;45.378;20.360;2023-04-24T03:23:44;9.23;;;5.07;;
74541;SDS011;63015;45.378;20.360;2023-04-24T03:25:44;9.18;;;5.07;;
74541;SDS011;63015;45.378;20.360;2023-04-24T03:27:46;7.80;;;5.43;;
74541;SDS011;63015;45.378;20.360;2023-04-24T03:30:06;8.90;;;5.05;;
74541;SDS011;63015;45.378;20.360;2023-04-24T03:32:30;7.45;;;3.78;;
74541;SDS011;63015;45.378;20.360;2023-04-24T03:34:32;9.15;;;5.45;;
74541;SDS011;63015;45.378;20.360;2023-04-24T03:36:33;10.05;;;5.25;;
74541;SDS011;63015;45.378;20.360;2023-04-24T03:38:34;9.48;;;5.30;;
74541;SDS011;63015;45.378;20.360;2023-04-24T03:40:44;8.65;;;5.15;;
74541;SDS011;63015;45.378;20.360;2023-04-24T03:43:17;7.63;;;4.88;;
74541;SDS011;63015;45.378;20.360;2023-04-24T03:45:18;11.73;;;5.32;;
74541;SDS011;63015;45.378;20.360;2023-04-24T03:47:22;7.95;;;5.25;;
74541;SDS011;63015;45.378;20.360;2023-04-24T03:49:24;10.40;;;4.93;;
74541;SDS011;63015;45.378;20.360;2023-04-24T03:51:24;9.18;;;5.55;;
74541;SDS011;63015;45.378;20.360;2023-04-24T03:53:30;10.27;;;6.20;;
74541;SDS011;63015;45.378;20.360;2023-04-24T03:55:31;11.15;;;6.10;;
74541;SDS011;63015;45.378;20.360;2023-04-24T03:57:32;9.20;;;5.90;;
74541;SDS011;63015;45.378;20.360;2023-04-24T03:59:45;12.30;;;6.22;;
74541;SDS011;63015;45.378;20.360;2023-04-24T04:01:51;12.57;;;6.18;;
74541;SDS011;63015;45.378;20.360;2023-04-24T04:03:51;7.28;;;4.28;;
74541;SDS011;63015;45.378;20.360;2023-04-24T04:05:57;11.00;;;5.40;;
74541;SDS011;63015;45.378;20.360;2023-04-24T04:07:57;10.57;;;5.78;;
74541;SDS011;63015;45.378;20.360;2023-04-24T04:09:58;11.23;;;6.00;;
74541;SDS011;63015;45.378;20.360;2023-04-24T04:11:59;10.95;;;4.55;;
74541;SDS011;63015;45.378;20.360;2023-04-24T04:14:00;6.72;;;4.07;;
74541;SDS011;63015;45.378;20.360;2023-04-24T04:16:02;8.00;;;5.63;;
74541;SDS011;63015;45.378;20.360;2023-04-24T04:18:02;8.52;;;5.38;;
74541;SDS011;63015;45.378;20.360;2023-04-24T04:20:04;8.50;;;5.95;;
74541;SDS011;63015;45.378;20.360;2023-04-24T04:22:11;9.82;;;5.57;;
74541;SDS011;63015;45.378;20.360;2023-04-24T04:24:16;10.68;;;5.05;;
74541;SDS011;63015;45.378;20.360;2023-04-24T04:26:19;12.10;;;5.53;;
74541;SDS011;63015;45.378;20.360;2023-04-24T04:28:37;10.63;;;5.35;;
74541;SDS011;63015;45.378;20.360;2023-04-24T04:30:39;7.97;;;4.88;;
74541;SDS011;63015;45.378;20.360;2023-04-24T04:32:40;9.23;;;4.45;;
74541;SDS011;63015;45.378;20.360;2023-04-24T04:34:42;8.80;;;4.32;;
74541;SDS011;63015;45.378;20.360;2023-04-24T04:36:45;9.80;;;5.45;;
74541;SDS011;63015;45.378;20.360;2023-04-24T04:39:06;7.97;;;4.40;;
74541;SDS011;63015;45.378;20.360;2023-04-24T04:41:20;8.02;;;4.38;;
74541;SDS011;63015;45.378;20.360;2023-04-24T04:43:21;6.90;;;4.82;;
74541;SDS011;63015;45.378;20.360;2023-04-24T04:45:25;8.23;;;4.50;;
74541;SDS011;63015;45.378;20.360;2023-04-24T04:47:45;8.02;;;4.68;;
74541;SDS011;63015;45.378;20.360;2023-04-24T04:49:46;9.88;;;5.43;;
74541;SDS011;63015;45.378;20.360;2023-04-24T04:51:54;12.50;;;5.18;;
74541;SDS011;63015;45.378;20.360;2023-04-24T04:53:57;9.63;;;4.93;;
74541;SDS011;63015;45.378;20.360;2023-04-24T04:55:58;8.55;;;4.82;;
74541;SDS011;63015;45.378;20.360;2023-04-24T04:58:06;8.07;;;3.67;;
74541;SDS011;63015;45.378;20.360;2023-04-24T05:00:07;6.47;;;4.35;;
74541;SDS011;63015;45.378;20.360;2023-04-24T05:02:19;6.88;;;4.78;;
74541;SDS011;63015;45.378;20.360;2023-04-24T05:04:20;6.57;;;3.20;;
74541;SDS011;63015;45.378;20.360;2023-04-24T05:06:21;7.18;;;3.85;;
74541;SDS011;63015;45.378;20.360;2023-04-24T05:08:21;5.68;;;3.03;;
74541;SDS011;63015;45.378;20.360;2023-04-24T05:10:22;10.27;;;4.10;;
74541;SDS011;63015;45.378;20.360;2023-04-24T05:12:25;8.27;;;4.20;;
74541;SDS011;63015;45.378;20.360;2023-04-24T05:14:27;8.27;;;4.80;;
74541;SDS011;63015;45.378;20.360;2023-04-24T05:16:27;7.43;;;4.40;;
74541;SDS011;63015;45.378;20.360;2023-04-24T05:18:29;8.82;;;3.92;;
74541;SDS011;63015;45.378;20.360;2023-04-24T05:20:31;7.82;;;4.50;;
74541;SDS011;63015;45.378;20.360;2023-04-24T05:22:32;8.75;;;3.97;;
74541;SDS011;63015;45.378;20.360;2023-04-24T05:24:36;7.07;;;3.10;;
74541;SDS011;63015;45.378;20.360;2023-04-24T05:26:54;6.28;;;3.83;;
74541;SDS011;63015;45.378;20.360;2023-04-24T05:29:00;7.05;;;4.00;;
74541;SDS011;63015;45.378;20.360;2023-04-24T05:31:01;7.82;;;3.97;;
74541;SDS011;63015;45.378;20.360;2023-04-24T05:33:03;6.63;;;4.03;;
74541;SDS011;63015;45.378;20.360;2023-04-24T05:35:05;6.90;;;4.20;;
74541;SDS011;63015;45.378;20.360;2023-04-24T05:37:06;7.90;;;3.38;;
74541;SDS011;63015;45.378;20.360;2023-04-24T05:39:10;8.73;;;4.60;;
74541;SDS011;63015;45.378;20.360;2023-04-24T05:41:10;7.45;;;4.93;;
74541;SDS011;63015;45.378;20.360;2023-04-24T05:43:11;8.75;;;3.60;;
74541;SDS011;63015;45.378;20.360;2023-04-24T05:45:13;7.32;;;3.80;;
74541;SDS011;63015;45.378;20.360;2023-04-24T05:47:17;9.30;;;4.88;;
74541;SDS011;63015;45.378;20.360;2023-04-24T05:49:18;7.20;;;4.40;;
74541;SDS011;63015;45.378;20.360;2023-04-24T05:51:20;8.70;;;4.55;;
74541;SDS011;63015;45.378;20.360;2023-04-24T05:53:20;14.20;;;5.47;;
74541;SDS011;63015;45.378;20.360;2023-04-24T05:55:22;9.43;;;4.38;;
74541;SDS011;63015;45.378;20.360;2023-04-24T05:57:22;10.18;;;4.40;;
74541;SDS011;63015;45.378;20.360;2023-04-24T05:59:41;9.88;;;4.80;;
74541;SDS011;63015;45.378;20.360;2023-04-24T06:01:42;10.25;;;3.90;;
74541;SDS011;63015;45.378;20.360;2023-04-24T06:03:48;10.07;;;4.55;;
74541;SDS011;63015;45.378;20.360;2023-04-24T06:05:52;9.50;;;4.40;;
74541;SDS011;63015;45.378;20.360;2023-04-24T06:07:55;9.48;;;4.03;;
74541;SDS011;63015;45.378;20.360;2023-04-24T06:09:57;9.75;;;3.95;;
74541;SDS011;63015;45.378;20.360;2023-04-24T06:11:59;8.20;;;4.72;;
74541;SDS011;63015;45.378;20.360;2023-04-24T06:14:16;7.45;;;4.82;;
74541;SDS011;63015;45.378;20.360;2023-04-24T06:16:42;10.07;;;3.85;;
74541;SDS011;63015;45.378;20.360;2023-04-24T06:19:00;7.20;;;4.53;;
74541;SDS011;63015;45.378;20.360;2023-04-24T06:21:01;7.68;;;4.78;;
74541;SDS011;63015;45.378;20.360;2023-04-24T06:23:04;9.48;;;4.30;;
74541;SDS011;63015;45.378;20.360;2023-04-24T06:25:07;6.70;;;3.75;;
74541;SDS011;63015;45.378;20.360;2023-04-24T06:27:08;8.52;;;4.50;;
74541;SDS011;63015;45.378;20.360;2023-04-24T06:29:08;7.22;;;4.63;;
74541;SDS011;63015;45.378;20.360;2023-04-24T06:31:09;8.52;;;5.22;;
74541;SDS011;63015;45.378;20.360;2023-04-24T06:33:10;9.63;;;4.40;;
74541;SDS011;63015;45.378;20.360;2023-04-24T06:35:11;9.45;;;3.97;;
74541;SDS011;63015;45.378;20.360;2023-04-24T06:37:12;6.97;;;4.55;;
74541;SDS011;63015;45.378;20.360;2023-04-24T06:39:13;7.45;;;4.80;;
74541;SDS011;63015;45.378;20.360;2023-04-24T06:41:13;8.25;;;3.50;;
74541;SDS011;63015;45.378;20.360;2023-04-24T06:43:14;6.20;;;4.30;;
74541;SDS011;63015;45.378;20.360;2023-04-24T06:45:15;8.32;;;5.05;;
74541;SDS011;63015;45.378;20.360;2023-04-24T06:47:15;8.77;;;4.25;;
74541;SDS011;63015;45.378;20.360;2023-04-24T06:49:16;7.22;;;4.28;;
74541;SDS011;63015;45.378;20.360;2023-04-24T06:51:17;6.90;;;4.70;;
74541;SDS011;63015;45.378;20.360;2023-04-24T06:53:18;8.80;;;4.35;;
74541;SDS011;63015;45.378;20.360;2023-04-24T06:55:19;8.13;;;4.72;;
74541;SDS011;63015;45.378;20.360;2023-04-24T06:57:19;8.07;;;5.15;;
74541;SDS011;63015;45.378;20.360;2023-04-24T06:59:20;6.75;;;4.28;;
74541;SDS011;63015;45.378;20.360;2023-04-24T07:01:21;9.18;;;5.20;;
74541;SDS011;63015;45.378;20.360;2023-04-24T07:03:22;7.57;;;4.72;;
74541;SDS011;63015;45.378;20.360;2023-04-24T07:05:22;9.48;;;5.53;;
74541;SDS011;63015;45.378;20.360;2023-04-24T07:07:23;9.13;;;6.68;;
74541;SDS011;63015;45.378;20.360;2023-04-24T07:09:24;8.38;;;6.10;;
74541;SDS011;63015;45.378;20.360;2023-04-24T07:11:25;8.40;;;5.95;;
74541;SDS011;63015;45.378;20.360;2023-04-24T07:13:29;9.07;;;6.05;;
74541;SDS011;63015;45.378;20.360;2023-04-24T07:15:30;8.90;;;5.03;;
74541;SDS011;63015;45.378;20.360;2023-04-24T07:17:30;7.38;;;4.82;;
74541;SDS011;63015;45.378;20.360;2023-04-24T07:19:32;9.25;;;5.72;;
74541;SDS011;63015;45.378;20.360;2023-04-24T07:21:33;10.75;;;6.50;;
74541;SDS011;63015;45.378;20.360;2023-04-24T07:23:34;7.45;;;4.93;;
74541;SDS011;63015;45.378;20.360;2023-04-24T07:25:35;9.43;;;5.95;;
74541;SDS011;63015;45.378;20.360;2023-04-24T07:27:35;9.68;;;5.20;;
74541;SDS011;63015;45.378;20.360;2023-04-24T07:29:36;7.72;;;5.07;;
74541;SDS011;63015;45.378;20.360;2023-04-24T07:31:37;8.52;;;5.32;;
74541;SDS011;63015;45.378;20.360;2023-04-24T07:33:38;9.25;;;5.18;;
74541;SDS011;63015;45.378;20.360;2023-04-24T07:35:39;9.23;;;4.97;;
74541;SDS011;63015;45.378;20.360;2023-04-24T07:37:39;9.85;;;6.07;;
74541;SDS011;63015;45.378;20.360;2023-04-24T07:39:40;9.25;;;6.68;;
74541;SDS011;63015;45.378;20.360;2023-04-24T07:41:41;8.82;;;5.68;;
74541;SDS011;63015;45.378;20.360;2023-04-24T07:43:41;11.85;;;6.75;;
74541;SDS011;63015;45.378;20.360;2023-04-24T07:45:42;9.52;;;6.40;;
74541;SDS011;63015;45.378;20.360;2023-04-24T07:47:43;10.35;;;6.93;;
74541;SDS011;63015;45.378;20.360;2023-04-24T07:49:45;11.00;;;7.03;;
74541;SDS011;63015;45.378;20.360;2023-04-24T07:51:46;9.45;;;5.78;;
74541;SDS011;63015;45.378;20.360;2023-04-24T07:53:46;9.13;;;5.95;;
74541;SDS011;63015;45.378;20.360;2023-04-24T07:55:47;10.20;;;6.55;;
74541;SDS011;63015;45.378;20.360;2023-04-24T07:57:48;11.57;;;6.30;;
74541;SDS011;63015;45.378;20.360;2023-04-24T07:59:48;13.75;;;6.55;;
74541;SDS011;63015;45.378;20.360;2023-04-24T08:01:49;11.93;;;6.50;;
74541;SDS011;63015;45.378;20.360;2023-04-24T08:03:50;11.88;;;6.57;;
74541;SDS011;63015;45.378;20.360;2023-04-24T08:05:51;11.27;;;5.72;;
74541;SDS011;63015;45.378;20.360;2023-04-24T08:07:52;9.40;;;6.30;;
74541;SDS011;63015;45.378;20.360;2023-04-24T08:09:53;10.25;;;6.70;;
74541;SDS011;63015;45.378;20.360;2023-04-24T08:11:54;12.88;;;7.53;;
74541;SDS011;63015;45.378;20.360;2023-04-24T08:13:54;13.65;;;6.95;;
74541;SDS011;63015;45.378;20.360;2023-04-24T08:15:56;11.27;;;6.43;;
74541;SDS011;63015;45.378;20.360;2023-04-24T08:17:57;8.85;;;6.10;;
74541;SDS011;63015;45.378;20.360;2023-04-24T08:19:57;10.60;;;7.32;;
74541;SDS011;63015;45.378;20.360;2023-04-24T08:22:01;12.20;;;8.32;;
74541;SDS011;63015;45.378;20.360;2023-04-24T08:24:02;12.90;;;7.20;;
74541;SDS011;63015;45.378;20.360;2023-04-24T08:26:07;11.98;;;7.78;;
74541;SDS011;63015;45.378;20.360;2023-04-24T08:28:08;15.85;;;8.57;;
74541;SDS011;63015;45.378;20.360;2023-04-24T08:30:10;10.60;;;7.50;;
74541;SDS011;63015;45.378;20.360;2023-04-24T08:32:11;10.38;;;7.50;;
74541;SDS011;63015;45.378;20.360;2023-04-24T08:34:12;11.77;;;7.40;;
74541;SDS011;63015;45.378;20.360;2023-04-24T08:36:13;14.18;;;8.10;;
74541;SDS011;63015;45.378;20.360;2023-04-24T08:38:13;11.77;;;8.25;;
74541;SDS011;63015;45.378;20.360;2023-04-24T08:40:16;10.55;;;7.75;;
74541;SDS011;63015;45.378;20.360;2023-04-24T08:42:17;12.25;;;7.47;;
74541;SDS011;63015;45.378;20.360;2023-04-24T08:44:19;12.40;;;8.40;;
74541;SDS011;63015;45.378;20.360;2023-04-24T08:46:20;15.18;;;8.52;;
74541;SDS011;63015;45.378;20.360;2023-04-24T08:48:22;11.20;;;7.15;;
74541;SDS011;63015;45.378;20.360;2023-04-24T08:50:24;12.98;;;7.93;;
74541;SDS011;63015;45.378;20.360;2023-04-24T08:52:25;10.82;;;7.07;;
74541;SDS011;63015;45.378;20.360;2023-04-24T08:54:25;12.35;;;8.10;;
74541;SDS011;63015;45.378;20.360;2023-04-24T08:56:27;11.77;;;7.82;;
74541;SDS011;63015;45.378;20.360;2023-04-24T08:58:28;10.70;;;7.72;;
74541;SDS011;63015;45.378;20.360;2023-04-24T09:00:30;10.32;;;7.57;;
74541;SDS011;63015;45.378;20.360;2023-04-24T09:02:31;10.82;;;7.30;;
74541;SDS011;63015;45.378;20.360;2023-04-24T09:04:34;11.23;;;8.05;;
74541;SDS011;63015;45.378;20.360;2023-04-24T09:06:36;12.23;;;7.80;;
74541;SDS011;63015;45.378;20.360;2023-04-24T09:08:37;11.95;;;7.55;;
74541;SDS011;63015;45.378;20.360;2023-04-24T09:10:41;9.18;;;6.35;;
74541;SDS011;63015;45.378;20.360;2023-04-24T09:12:42;10.63;;;7.28;;
74541;SDS011;63015;45.378;20.360;2023-04-24T09:14:45;14.15;;;6.80;;
74541;SDS011;63015;45.378;20.360;2023-04-24T09:16:46;9.40;;;6.50;;
74541;SDS011;63015;45.378;20.360;2023-04-24T09:18:46;11.00;;;7.00;;
74541;SDS011;63015;45.378;20.360;2023-04-24T09:21:00;10.27;;;6.40;;
74541;SDS011;63015;45.378;20.360;2023-04-24T09:23:02;9.07;;;6.00;;
74541;SDS011;63015;45.378;20.360;2023-04-24T09:25:04;11.88;;;7.25;;
74541;SDS011;63015;45.378;20.360;2023-04-24T09:27:06;10.82;;;7.72;;
74541;SDS011;63015;45.378;20.360;2023-04-24T09:29:07;12.35;;;7.70;;
74541;SDS011;63015;45.378;20.360;2023-04-24T09:31:12;10.55;;;7.80;;
74541;SDS011;63015;45.378;20.360;2023-04-24T09:33:15;9.35;;;6.60;;
74541;SDS011;63015;45.378;20.360;2023-04-24T09:35:16;9.63;;;7.68;;
74541;SDS011;63015;45.378;20.360;2023-04-24T09:37:29;12.00;;;8.25;;
74541;SDS011;63015;45.378;20.360;2023-04-24T09:39:30;8.82;;;6.45;;
74541;SDS011;63015;45.378;20.360;2023-04-24T09:41:31;13.27;;;7.47;;
74541;SDS011;63015;45.378;20.360;2023-04-24T09:43:33;10.63;;;7.85;;
74541;SDS011;63015;45.378;20.360;2023-04-24T09:45:35;13.32;;;8.63;;
74541;SDS011;63015;45.378;20.360;2023-04-24T09:47:39;13.77;;;8.73;;
74541;SDS011;63015;45.378;20.360;2023-04-24T09:49:40;14.88;;;8.98;;
74541;SDS011;63015;45.378;20.360;2023-04-24T09:51:43;10.98;;;8.27;;
74541;SDS011;63015;45.378;20.360;2023-04-24T09:53:47;12.20;;;8.27;;
74541;SDS011;63015;45.378;20.360;2023-04-24T09:55:52;9.40;;;6.55;;
74541;SDS011;63015;45.378;20.360;2023-04-24T09:57:54;15.38;;;7.93;;
74541;SDS011;63015;45.378;20.360;2023-04-24T09:59:56;12.90;;;7.95;;
74541;SDS011;63015;45.378;20.360;2023-04-24T10:01:57;11.20;;;8.05;;
74541;SDS011;63015;45.378;20.360;2023-04-24T10:04:00;8.98;;;6.47;;
74541;SDS011;63015;45.378;20.360;2023-04-24T10:06:01;11.13;;;7.35;;
74541;SDS011;63015;45.378;20.360;2023-04-24T10:08:10;12.55;;;7.95;;
74541;SDS011;63015;45.378;20.360;2023-04-24T10:10:12;8.63;;;5.93;;
74541;SDS011;63015;45.378;20.360;2023-04-24T10:12:12;11.80;;;9.18;;
74541;SDS011;63015;45.378;20.360;2023-04-24T10:14:14;15.25;;;8.20;;
74541;SDS011;63015;45.378;20.360;2023-04-24T10:16:16;9.90;;;6.90;;
74541;SDS011;63015;45.378;20.360;2023-04-24T10:18:17;12.32;;;7.57;;
74541;SDS011;63015;45.378;20.360;2023-04-24T10:20:24;14.80;;;9.60;;
74541;SDS011;63015;45.378;20.360;2023-04-24T10:22:29;12.07;;;8.77;;
74541;SDS011;63015;45.378;20.360;2023-04-24T10:24:30;14.63;;;10.25;;
74541;SDS011;63015;45.378;20.360;2023-04-24T10:26:34;13.80;;;8.88;;
74541;SDS011;63015;45.378;20.360;2023-04-24T10:28:38;11.00;;;7.18;;
74541;SDS011;63015;45.378;20.360;2023-04-24T10:30:42;11.65;;;8.13;;
74541;SDS011;63015;45.378;20.360;2023-04-24T10:32:43;14.30;;;8.95;;
74541;SDS011;63015;45.378;20.360;2023-04-24T10:34:44;12.70;;;9.60;;
74541;SDS011;63015;45.378;20.360;2023-04-24T10:36:46;11.57;;;7.80;;
74541;SDS011;63015;45.378;20.360;2023-04-24T10:38:50;11.70;;;8.30;;
74541;SDS011;63015;45.378;20.360;2023-04-24T10:41:06;13.02;;;8.68;;
74541;SDS011;63015;45.378;20.360;2023-04-24T10:43:09;13.82;;;9.52;;
74541;SDS011;63015;45.378;20.360;2023-04-24T10:45:18;12.45;;;9.13;;
74541;SDS011;63015;45.378;20.360;2023-04-24T10:47:22;15.52;;;10.77;;
74541;SDS011;63015;45.378;20.360;2023-04-24T10:49:29;14.80;;;9.25;;
74541;SDS011;63015;45.378;20.360;2023-04-24T10:51:50;17.30;;;10.73;;
74541;SDS011;63015;45.378;20.360;2023-04-24T10:53:55;16.15;;;11.80;;
74541;SDS011;63015;45.378;20.360;2023-04-24T10:56:05;16.27;;;11.52;;
74541;SDS011;63015;45.378;20.360;2023-04-24T10:58:07;19.42;;;11.30;;
74541;SDS011;63015;45.378;20.360;2023-04-24T11:02:24;15.43;;;11.02;;
74541;SDS011;63015;45.378;20.360;2023-04-24T11:04:36;16.95;;;12.23;;
74541;SDS011;63015;45.378;20.360;2023-04-24T11:06:37;14.05;;;9.88;;
74541;SDS011;63015;45.378;20.360;2023-04-24T11:08:38;17.65;;;11.88;;
74541;SDS011;63015;45.378;20.360;2023-04-24T11:10:44;14.27;;;9.50;;
74541;SDS011;63015;45.378;20.360;2023-04-24T11:12:45;15.05;;;10.63;;
74541;SDS011;63015;45.378;20.360;2023-04-24T11:16:56;18.23;;;11.27;;
74541;SDS011;63015;45.378;20.360;2023-04-24T11:19:00;15.10;;;9.90;;
74541;SDS011;63015;45.378;20.360;2023-04-24T11:21:13;16.15;;;10.57;;
74541;SDS011;63015;45.378;20.360;2023-04-24T11:23:17;16.90;;;12.18;;
74541;SDS011;63015;45.378;20.360;2023-04-24T11:25:18;17.65;;;10.50;;
74541;SDS011;63015;45.378;20.360;2023-04-24T11:27:20;15.07;;;11.07;;
74541;SDS011;63015;45.378;20.360;2023-04-24T11:29:22;11.00;;;7.55;;
74541;SDS011;63015;45.378;20.360;2023-04-24T11:31:39;12.57;;;9.60;;
74541;SDS011;63015;45.378;20.360;2023-04-24T11:33:48;13.20;;;9.25;;
74541;SDS011;63015;45.378;20.360;2023-04-24T11:35:49;13.93;;;9.45;;
74541;SDS011;63015;45.378;20.360;2023-04-24T11:37:52;11.18;;;8.20;;
74541;SDS011;63015;45.378;20.360;2023-04-24T11:39:54;14.30;;;10.48;;
74541;SDS011;63015;45.378;20.360;2023-04-24T11:42:01;16.55;;;10.13;;
74541;SDS011;63015;45.378;20.360;2023-04-24T11:44:06;14.50;;;9.32;;
74541;SDS011;63015;45.378;20.360;2023-04-24T11:46:08;13.77;;;10.02;;
74541;SDS011;63015;45.378;20.360;2023-04-24T11:48:08;15.60;;;10.50;;
74541;SDS011;63015;45.378;20.360;2023-04-24T11:50:11;19.52;;;11.82;;
74541;SDS011;63015;45.378;20.360;2023-04-24T11:54:15;15.77;;;9.95;;
74541;SDS011;63015;45.378;20.360;2023-04-24T11:56:19;19.42;;;11.02;;
74541;SDS011;63015;45.378;20.360;2023-04-24T11:58:21;16.02;;;11.48;;
74541;SDS011;63015;45.378;20.360;2023-04-24T12:00:23;19.25;;;11.40;;
74541;SDS011;63015;45.378;20.360;2023-04-24T12:02:28;17.00;;;12.07;;
74541;SDS011;63015;45.378;20.360;2023-04-24T12:04:37;19.00;;;11.07;;
74541;SDS011;63015;45.378;20.360;2023-04-24T12:06:40;20.45;;;12.70;;
74541;SDS011;63015;45.378;20.360;2023-04-24T12:08:40;17.40;;;11.27;;
74541;SDS011;63015;45.378;20.360;2023-04-24T12:10:41;15.50;;;9.60;;